Time;durP1;ratioP1;P1;durP2;ratioP2;P2;SDS_P1;SDS_P2;PMS_P1;PMS_P2;Temp;Humidity;BMP_temperature;BMP_pressure;BME280_temperature;BME280_humidity;BME280_pressure;Samples;Min_cycle;Max_cycle;Signal;HPM_P1;HPM_P2
2023/04/10 00:00:09;;;;;;;7.82;1.15;;;6.90;99.90;;;;;;4992256;28;20116;-80
2023/04/10 00:02:36;;;;;;;0.70;0.70;;;6.80;99.90;;;;;;5008462;28;20069;-81
2023/04/10 00:05:02;;;;;;;1.55;1.25;;;6.80;99.90;;;;;;5008904;28;20045;-82
2023/04/10 00:07:28;;;;;;;1.75;1.65;;;6.80;99.90;;;;;;5008946;28;20089;-82
2023/04/10 00:09:53;;;;;;;1.27;1.27;;;7.10;99.90;;;;;;5009020;28;20496;-81
2023/04/10 00:12:19;;;;;;;0.50;0.50;;;6.70;99.90;;;;;;4991010;28;20053;-81
2023/04/10 00:14:45;;;;;;;1.75;1.42;;;6.70;99.90;;;;;;4993409;28;20072;-82
2023/04/10 00:17:11;;;;;;;1.17;1.17;;;6.60;99.90;;;;;;4993230;28;20440;-82
2023/04/10 00:19:37;;;;;;;1.70;1.60;;;6.80;99.90;;;;;;5009061;28;20045;-81
2023/04/10 00:22:03;;;;;;;1.55;1.45;;;6.60;99.90;;;;;;5008655;28;20049;-82
2023/04/10 00:24:29;;;;;;;0.98;0.98;;;6.60;99.90;;;;;;5009273;28;20490;-82
2023/04/10 00:26:56;;;;;;;0.70;0.70;;;6.60;99.90;;;;;;5011936;28;20128;-82
2023/04/10 00:29:23;;;;;;;1.60;1.50;;;6.50;99.90;;;;;;5016563;28;20112;-82
2023/04/10 00:31:49;;;;;;;1.25;1.17;;;6.50;99.90;;;;;;5012383;28;20111;-80
2023/04/10 00:34:21;;;;;;;0.90;0.90;;;6.40;99.90;;;;;;5014367;28;20139;-81
2023/04/10 00:36:46;;;;;;;1.17;1.17;;;6.50;99.90;;;;;;5013753;28;20172;-82
2023/04/10 00:39:14;;;;;;;1.13;1.08;;;6.40;99.90;;;;;;5013717;28;20046;-83
2023/04/10 00:41:40;;;;;;;1.45;1.35;;;6.40;99.90;;;;;;5029611;28;20063;-82
2023/04/10 00:44:06;;;;;;;1.80;1.70;;;6.40;99.90;;;;;;4986363;28;20783;-83
2023/04/10 00:46:31;;;;;;;0.70;0.70;;;6.40;99.90;;;;;;5030172;28;20044;-82
2023/04/10 00:48:57;;;;;;;1.90;1.75;;;6.90;99.90;;;;;;5014013;28;20045;-83
2023/04/10 00:51:23;;;;;;;0.60;0.60;;;6.80;99.90;;;;;;5032863;28;20041;-83
2023/04/10 00:53:50;;;;;;;0.85;0.85;;;6.20;99.90;;;;;;5010999;28;20049;-83
2023/04/10 00:56:19;;;;;;;0.70;0.70;;;6.30;99.90;;;;;;4997143;28;20042;-82
2023/04/10 00:58:45;;;;;;;1.13;1.13;;;6.20;99.90;;;;;;5012030;28;20053;-81
2023/04/10 01:01:11;;;;;;;;;;;6.20;99.90;;;;;;5011471;28;20038;-82
2023/04/10 01:03:38;;;;;;;0.85;0.85;;;6.10;99.90;;;;;;4995897;28;20319;-82
2023/04/10 01:06:30;;;;;;;0.75;0.75;;;6.10;99.90;;;;;;4977677;28;20044;-83
2023/04/10 01:09:22;;;;;;;0.70;0.70;;;6.00;99.90;;;;;;5010340;28;20041;-82
2023/04/10 01:12:03;;;;;;;0.93;0.93;;;5.90;99.90;;;;;;5011247;28;20072;-82
2023/04/10 01:14:52;;;;;;;1.42;1.33;;;5.90;99.90;;;;;;5012707;28;20085;-82
2023/04/10 01:17:30;;;;;;;0.77;0.77;;;5.90;99.90;;;;;;4995974;28;20041;-82
2023/04/10 01:20:25;;;;;;;1.08;1.08;;;5.80;99.90;;;;;;5017646;28;20041;-82
2023/04/10 01:22:51;;;;;;;2.55;2.45;;;5.80;99.90;;;;;;5024165;28;20447;-83
2023/04/10 01:25:42;;;;;;;0.65;0.65;;;5.80;99.90;;;;;;5011310;28;20050;-83
2023/04/10 01:28:32;;;;;;;0.57;0.57;;;5.70;99.90;;;;;;5014961;28;20110;-82
2023/04/10 01:31:00;;;;;;;1.20;1.13;;;5.70;99.90;;;;;;5018646;28;20049;-81
2023/04/10 01:33:33;;;;;;;0.80;0.80;;;6.50;99.90;;;;;;5013547;28;20394;-81
2023/04/10 01:36:03;;;;;;;1.45;1.33;;;5.80;99.90;;;;;;5027908;28;20045;-80
2023/04/10 01:38:30;;;;;;;0.98;0.95;;;5.70;99.90;;;;;;5011643;28;20049;-82
2023/04/10 01:40:58;;;;;;;0.80;0.80;;;5.70;99.90;;;;;;5024995;28;20041;-82
2023/04/10 01:43:26;;;;;;;2.05;1.40;;;5.70;99.90;;;;;;5009409;28;20050;-82
2023/04/10 01:45:52;;;;;;;0.70;0.70;;;5.90;99.90;;;;;;5010802;28;20083;-82
2023/04/10 01:48:19;;;;;;;0.80;0.80;;;6.20;99.90;;;;;;5021813;28;20082;-82
2023/04/10 01:50:46;;;;;;;0.85;0.85;;;5.60;99.90;;;;;;5028341;28;20052;-82
2023/04/10 01:53:13;;;;;;;1.42;1.35;;;5.60;99.90;;;;;;5012759;28;20533;-83
2023/04/10 01:55:39;;;;;;;0.93;0.93;;;5.60;99.90;;;;;;5012571;28;20038;-84
2023/04/10 01:58:06;;;;;;;2.47;2.15;;;5.60;99.90;;;;;;5032375;28;20052;-82
2023/04/10 02:00:40;;;;;;;1.35;1.27;;;5.50;99.90;;;;;;5028246;28;20119;-83
2023/04/10 02:03:06;;;;;;;0.60;0.60;;;5.50;99.90;;;;;;5028078;28;20487;-82
2023/04/10 02:05:53;;;;;;;1.55;1.48;;;6.20;99.90;;;;;;5011715;28;20088;-83
2023/04/10 02:08:28;;;;;;;0.90;0.90;;;5.50;99.90;;;;;;5012766;28;20041;-83
2023/04/10 02:11:02;;;;;;;0.80;0.80;;;5.40;99.90;;;;;;5025065;28;20059;-83
2023/04/10 02:13:30;;;;;;;1.27;1.27;;;5.40;99.90;;;;;;5011528;28;20125;-83
2023/04/10 02:15:59;;;;;;;2.15;2.05;;;5.40;99.90;;;;;;5029122;28;20054;-82
2023/04/10 02:18:25;;;;;;;0.60;0.60;;;6.20;99.90;;;;;;5010275;28;20083;-82
2023/04/10 02:20:53;;;;;;;2.25;2.13;;;5.30;99.90;;;;;;5010742;28;20075;-83
2023/04/10 02:23:19;;;;;;;1.20;1.10;;;5.30;99.90;;;;;;5010885;28;20075;-83
2023/04/10 02:25:45;;;;;;;1.23;1.20;;;5.40;99.90;;;;;;4994637;28;20700;-83
2023/04/10 02:28:11;;;;;;;0.60;0.60;;;5.40;99.90;;;;;;5000293;28;20156;-83
2023/04/10 02:30:38;;;;;;;0.80;0.80;;;5.40;99.90;;;;;;5005304;28;20049;-83
2023/04/10 02:33:04;;;;;;;1.92;1.60;;;5.40;99.90;;;;;;5013482;28;20077;-83
2023/04/10 02:35:30;;;;;;;7.38;2.72;;;5.40;99.90;;;;;;5012566;28;20134;-83
2023/04/10 02:37:56;;;;;;;4.35;3.75;;;5.50;99.90;;;;;;5011493;28;20041;-84
2023/04/10 02:40:22;;;;;;;5.20;4.68;;;5.50;99.90;;;;;;5012137;28;20447;-83
2023/04/10 02:42:48;;;;;;;2.67;2.58;;;5.50;99.90;;;;;;5014446;28;20427;-82
2023/04/10 02:45:14;;;;;;;2.70;2.50;;;5.50;99.90;;;;;;5011364;28;20056;-83
2023/04/10 02:47:40;;;;;;;4.10;2.25;;;5.50;99.90;;;;;;5014156;28;20595;-83
2023/04/10 02:50:06;;;;;;;1.30;1.30;;;5.50;99.90;;;;;;5010572;28;20042;-83
2023/04/10 02:52:31;;;;;;;2.80;2.50;;;5.50;99.90;;;;;;5010684;28;20124;-81
2023/04/10 02:54:57;;;;;;;1.10;1.10;;;5.50;99.90;;;;;;5009696;28;20053;-83
2023/04/10 02:57:23;;;;;;;0.65;0.60;;;5.50;99.90;;;;;;4996496;28;20079;-82
2023/04/10 02:59:50;;;;;;;;;;;5.50;99.90;;;;;;5011395;28;20099;-82
2023/04/10 03:02:17;;;;;;;0.50;0.50;;;5.50;99.90;;;;;;4996099;28;19921;-82
2023/04/10 03:04:42;;;;;;;3.13;1.17;;;5.40;99.90;;;;;;5009423;28;20731;-82
2023/04/10 03:07:08;;;;;;;1.05;1.05;;;5.40;99.90;;;;;;5009553;28;20308;-80
2023/04/10 03:09:37;;;;;;;2.08;1.80;;;5.50;99.90;;;;;;5029614;28;20345;-81
2023/04/10 03:12:02;;;;;;;0.90;0.90;;;5.30;99.90;;;;;;4992947;28;20119;-82
2023/04/10 03:14:28;;;;;;;3.53;3.22;;;5.40;99.90;;;;;;5026711;28;20446;-82
2023/04/10 03:16:54;;;;;;;3.13;1.80;;;5.40;99.90;;;;;;5010501;28;20616;-81
2023/04/10 03:19:19;;;;;;;1.63;1.50;;;5.30;99.90;;;;;;5011162;28;20061;-81
2023/04/10 03:21:46;;;;;;;4.32;3.88;;;5.30;99.90;;;;;;5007558;28;20061;-82
2023/04/10 03:24:11;;;;;;;1.65;1.55;;;5.30;99.90;;;;;;5026589;28;20044;-81
2023/04/10 03:26:37;;;;;;;1.20;1.20;;;5.30;99.90;;;;;;5011660;28;20059;-83
2023/04/10 03:29:03;;;;;;;2.35;2.15;;;5.30;99.90;;;;;;5007913;28;20119;-82
2023/04/10 03:31:29;;;;;;;0.68;0.68;;;5.20;99.90;;;;;;5008335;28;20083;-82
2023/04/10 03:33:55;;;;;;;2.25;1.77;;;5.30;99.90;;;;;;5010387;28;20052;-82
2023/04/10 03:36:21;;;;;;;0.63;0.63;;;5.20;99.90;;;;;;4977658;28;20042;-81
2023/04/10 03:38:46;;;;;;;0.98;0.98;;;6.00;99.90;;;;;;5027885;28;20829;-84
2023/04/10 03:41:12;;;;;;;0.70;0.70;;;5.10;99.90;;;;;;5009493;28;21816;-81
2023/04/10 03:43:38;;;;;;;1.15;1.05;;;5.10;99.90;;;;;;5010349;28;20518;-83
2023/04/10 03:46:04;;;;;;;1.15;1.15;;;5.10;99.90;;;;;;5008670;28;20045;-81
2023/04/10 03:48:31;;;;;;;0.77;0.77;;;5.00;99.90;;;;;;5012821;28;20120;-82
2023/04/10 03:50:59;;;;;;;0.93;0.93;;;5.00;99.90;;;;;;5009579;28;20045;-83
2023/04/10 03:53:25;;;;;;;1.95;1.85;;;5.00;99.90;;;;;;5008265;28;20471;-81
2023/04/10 03:55:51;;;;;;;0.68;0.68;;;5.00;99.90;;;;;;5011190;28;20465;-81
2023/04/10 03:58:18;;;;;;;;;;;5.00;99.90;;;;;;5007910;28;20091;-80
2023/04/10 04:00:44;;;;;;;1.30;1.20;;;5.00;99.90;;;;;;5008844;28;19921;-81
2023/04/10 04:03:10;;;;;;;3.33;2.55;;;4.90;99.90;;;;;;5007593;28;20041;-82
2023/04/10 04:05:36;;;;;;;1.77;1.70;;;5.20;99.90;;;;;;5010697;28;20041;-81
2023/04/10 04:08:05;;;;;;;;;;;4.90;99.90;;;;;;5027055;28;20047;-83
2023/04/10 04:10:31;;;;;;;1.20;1.13;;;4.80;99.90;;;;;;4992980;28;20300;-81
2023/04/10 04:12:57;;;;;;;1.48;1.38;;;4.80;99.90;;;;;;5025646;28;20053;-82
2023/04/10 04:15:22;;;;;;;1.30;1.10;;;5.30;99.90;;;;;;5009512;28;20041;-83
2023/04/10 04:17:48;;;;;;;0.82;0.82;;;4.80;99.90;;;;;;5024460;28;20538;-82
2023/04/10 04:20:14;;;;;;;1.00;1.00;;;4.80;99.90;;;;;;5008956;28;20057;-82
2023/04/10 04:22:40;;;;;;;;;;;4.70;99.90;;;;;;5009958;28;21585;-82
2023/04/10 04:25:09;;;;;;;0.75;0.75;;;4.70;99.90;;;;;;4994649;28;19947;-81
2023/04/10 04:27:35;;;;;;;1.20;1.20;;;4.70;99.90;;;;;;5008388;28;20041;-81
2023/04/10 04:30:02;;;;;;;1.77;1.67;;;5.50;99.90;;;;;;5009362;28;20057;-85
2023/04/10 04:32:27;;;;;;;1.52;1.45;;;4.70;99.90;;;;;;5014587;28;20478;-83
2023/04/10 04:34:53;;;;;;;1.58;1.48;;;4.80;99.90;;;;;;5013596;28;20095;-86
2023/04/10 04:37:19;;;;;;;1.45;1.35;;;4.80;99.90;;;;;;5010464;28;20042;-86
2023/04/10 04:39:44;;;;;;;0.90;0.90;;;5.00;99.90;;;;;;5016324;28;20446;-86
2023/04/10 04:42:10;;;;;;;4.93;3.80;;;5.10;99.90;;;;;;5010892;28;20327;-84
2023/04/10 04:44:36;;;;;;;2.90;2.80;;;4.80;99.90;;;;;;5008497;28;20494;-84
2023/04/10 04:47:01;;;;;;;1.08;1.08;;;4.70;99.90;;;;;;5006743;28;20044;-84
2023/04/10 04:49:27;;;;;;;0.73;0.73;;;4.80;99.90;;;;;;5024326;28;20041;-86
2023/04/10 04:51:53;;;;;;;0.70;0.70;;;4.90;99.90;;;;;;5027563;28;20045;-85
2023/04/10 04:54:19;;;;;;;3.97;1.98;;;4.90;99.90;;;;;;5010489;28;20049;-84
2023/04/10 04:56:44;;;;;;;1.13;1.10;;;4.90;99.90;;;;;;5021665;28;20067;-85
2023/04/10 04:59:10;;;;;;;0.90;0.90;;;4.90;99.90;;;;;;5043535;28;20040;-86
2023/04/10 05:01:36;;;;;;;2.78;2.65;;;4.70;99.90;;;;;;5012376;28;20091;-85
2023/04/10 05:04:01;;;;;;;0.98;0.98;;;5.80;99.90;;;;;;5009937;28;20037;-84
2023/04/10 05:06:27;;;;;;;0.90;0.90;;;4.90;99.90;;;;;;5006181;28;20152;-85
2023/04/10 05:08:53;;;;;;;4.43;1.65;;;5.00;99.90;;;;;;5028692;28;20046;-86
2023/04/10 05:11:18;;;;;;;8.57;7.85;;;5.10;99.90;;;;;;5009853;28;20045;-85
2023/04/10 05:13:44;;;;;;;1.55;1.45;;;5.20;99.90;;;;;;5014338;28;20041;-83
2023/04/10 05:16:10;;;;;;;0.60;0.60;;;5.20;99.90;;;;;;5033854;28;20079;-86
2023/04/10 05:18:35;;;;;;;1.60;1.38;;;5.30;99.90;;;;;;5012238;28;20049;-84
2023/04/10 05:21:01;;;;;;;1.10;1.08;;;5.40;99.90;;;;;;5013609;28;20057;-84
2023/04/10 05:23:27;;;;;;;1.10;1.10;;;5.50;99.90;;;;;;5019903;28;20098;-84
2023/04/10 05:25:52;;;;;;;0.80;0.80;;;6.00;99.90;;;;;;4997136;28;20543;-85
2023/04/10 05:28:18;;;;;;;3.20;1.35;;;5.60;99.90;;;;;;5016315;28;20038;-86
2023/04/10 05:30:47;;;;;;;0.90;0.90;;;5.60;99.90;;;;;;5032333;28;20033;-84
2023/04/10 05:33:12;;;;;;;0.80;0.80;;;5.70;99.90;;;;;;5004812;28;20497;-86
2023/04/10 05:35:38;;;;;;;1.40;1.35;;;5.70;99.90;;;;;;4985244;28;20390;-86
2023/04/10 05:38:04;;;;;;;1.08;1.08;;;6.30;99.90;;;;;;5021504;28;20462;-84
2023/04/10 05:40:29;;;;;;;0.75;0.75;;;6.70;99.90;;;;;;5011047;28;20047;-87
2023/04/10 05:42:56;;;;;;;4.78;3.80;;;5.90;99.90;;;;;;5015570;28;20487;-85
2023/04/10 05:45:22;;;;;;;2.42;2.33;;;5.90;99.90;;;;;;5002136;28;20096;-86
2023/04/10 05:47:48;;;;;;;1.38;1.27;;;6.70;99.90;;;;;;5009236;28;20511;-87
2023/04/10 05:50:14;;;;;;;;;;;6.00;99.90;;;;;;5014654;28;20099;-85
2023/04/10 05:52:39;;;;;;;0.68;0.68;;;6.10;99.90;;;;;;5017558;28;19967;-84
2023/04/10 05:55:06;;;;;;;1.00;1.00;;;6.40;99.90;;;;;;4997447;28;20053;-84
2023/04/10 05:57:31;;;;;;;1.80;1.70;;;6.10;99.90;;;;;;5011037;28;20561;-85
2023/04/10 05:59:57;;;;;;;1.15;1.15;;;6.10;99.90;;;;;;5011726;28;20124;-85
2023/04/10 06:02:23;;;;;;;1.17;1.17;;;6.20;99.90;;;;;;5011323;28;20042;-85
2023/04/10 06:04:50;;;;;;;0.68;0.68;;;6.30;99.90;;;;;;4996918;28;20049;-86
2023/04/10 06:07:15;;;;;;;1.00;1.00;;;6.30;99.90;;;;;;5012443;28;20056;-85
2023/04/10 06:09:41;;;;;;;0.77;0.77;;;6.40;99.90;;;;;;5010559;28;20058;-87
2023/04/10 06:12:07;;;;;;;1.85;1.75;;;6.50;99.90;;;;;;5009878;28;20056;-83
2023/04/10 06:14:38;;;;;;;1.40;1.30;;;6.60;99.90;;;;;;5015448;28;20067;-88
2023/04/10 06:17:05;;;;;;;3.30;1.73;;;6.70;99.90;;;;;;5013750;28;20034;-86
2023/04/10 06:19:31;;;;;;;1.05;1.05;;;6.80;99.90;;;;;;5012780;28;20041;-85
2023/04/10 06:21:56;;;;;;;0.80;0.80;;;6.90;99.90;;;;;;5019512;28;20111;-86
2023/04/10 06:24:22;;;;;;;0.82;0.82;;;7.00;99.90;;;;;;5016206;28;20060;-86
2023/04/10 06:26:49;;;;;;;1.33;1.10;;;7.20;99.90;;;;;;4985261;28;20190;-85
2023/04/10 06:29:15;;;;;;;2.17;2.08;;;7.40;99.90;;;;;;4980892;28;20053;-86
2023/04/10 06:31:48;;;;;;;2.38;2.25;;;7.50;99.90;;;;;;5038878;28;20066;-87
2023/04/10 06:34:14;;;;;;;1.52;1.40;;;7.70;99.90;;;;;;5016836;28;20113;-88
2023/04/10 06:36:39;;;;;;;3.33;3.13;;;7.80;99.90;;;;;;4997216;28;20057;-87
2023/04/10 06:39:05;;;;;;;1.48;1.38;;;7.90;99.90;;;;;;4966436;28;20124;-85
2023/04/10 06:41:31;;;;;;;1.08;1.00;;;7.90;99.90;;;;;;5012138;28;20065;-89
2023/04/10 06:44:03;;;;;;;1.92;1.67;;;8.10;99.90;;;;;;4983875;28;20094;-84
2023/04/10 06:46:28;;;;;;;4.05;1.85;;;8.00;99.90;;;;;;5009580;28;20057;-85
2023/04/10 06:48:54;;;;;;;1.77;1.35;;;8.10;99.90;;;;;;4996365;28;20110;-86
2023/04/10 06:51:20;;;;;;;2.63;0.98;;;8.10;99.90;;;;;;4995478;28;20136;-87
2023/04/10 06:53:45;;;;;;;1.58;1.30;;;8.20;99.90;;;;;;5014990;28;20049;-85
2023/04/10 06:56:11;;;;;;;1.58;1.48;;;8.40;99.90;;;;;;4982425;28;20042;-87
2023/04/10 06:58:37;;;;;;;1.83;1.73;;;8.50;99.90;;;;;;5013490;28;20167;-88
2023/04/10 07:01:03;;;;;;;1.58;1.48;;;8.70;99.90;;;;;;5010743;28;20034;-88
2023/04/10 07:03:30;;;;;;;1.42;1.40;;;8.80;99.90;;;;;;4995082;28;20026;-87
2023/04/10 07:05:56;;;;;;;1.17;1.17;;;9.00;99.90;;;;;;4989308;28;20041;-87
2023/04/10 07:08:22;;;;;;;0.90;0.90;;;9.10;99.90;;;;;;4993895;28;20045;-87
2023/04/10 07:10:48;;;;;;;4.72;1.45;;;9.20;99.90;;;;;;5027837;28;20031;-86
2023/04/10 07:13:14;;;;;;;0.98;0.95;;;9.10;99.90;;;;;;5014799;28;20044;-86
2023/04/10 07:15:39;;;;;;;3.60;3.28;;;9.10;99.90;;;;;;5010515;28;20050;-88
2023/04/10 07:18:05;;;;;;;2.28;2.10;;;9.10;99.90;;;;;;5028488;28;20411;-87
2023/04/10 07:20:31;;;;;;;1.13;1.08;;;9.40;99.90;;;;;;5011303;28;20041;-87
2023/04/10 07:22:58;;;;;;;;;;;9.00;99.90;;;;;;5008457;28;20419;-87
2023/04/10 07:25:24;;;;;;;1.27;1.08;;;9.10;99.90;;;;;;5015494;28;19917;-87
2023/04/10 07:27:51;;;;;;;0.85;0.85;;;9.20;99.90;;;;;;5009254;28;20471;-88
2023/04/10 07:30:18;;;;;;;1.40;1.30;;;9.30;99.90;;;;;;5009447;28;20077;-87
2023/04/10 07:32:44;;;;;;;0.77;0.77;;;9.40;99.90;;;;;;5014101;28;20048;-87
2023/04/10 07:35:10;;;;;;;2.95;1.95;;;9.50;99.90;;;;;;5013407;28;20398;-84
2023/04/10 07:37:36;;;;;;;1.60;1.42;;;9.60;99.90;;;;;;5017877;28;20045;-85
2023/04/10 07:40:02;;;;;;;1.55;1.45;;;9.70;99.90;;;;;;5012170;28;20052;-84
2023/04/10 07:42:27;;;;;;;1.08;0.98;;;9.80;99.90;;;;;;5012619;28;20049;-87
2023/04/10 07:44:53;;;;;;;1.60;1.52;;;9.90;99.90;;;;;;5009226;28;20585;-86
2023/04/10 07:47:19;;;;;;;1.17;1.00;;;10.00;99.90;;;;;;4993252;28;20572;-88
2023/04/10 07:49:45;;;;;;;0.95;0.93;;;10.10;99.90;;;;;;5028055;28;20057;-87
2023/04/10 07:52:10;;;;;;;0.90;0.90;;;10.20;99.90;;;;;;5023823;28;20132;-87
2023/04/10 07:54:36;;;;;;;4.10;2.38;;;10.50;99.90;;;;;;5011344;28;20147;-90
2023/04/10 07:57:02;;;;;;;1.13;1.13;;;10.70;99.90;;;;;;4990495;28;20100;-87
2023/04/10 07:59:27;;;;;;;3.42;3.17;;;10.90;99.90;;;;;;5008930;28;20147;-86
2023/04/10 08:01:54;;;;;;;1.17;1.02;;;11.20;99.90;;;;;;5001303;28;20034;-86
2023/04/10 08:04:20;;;;;;;4.63;2.55;;;11.40;99.90;;;;;;5012365;28;20108;-86
2023/04/10 08:06:45;;;;;;;2.58;2.40;;;11.50;99.90;;;;;;5016474;28;20516;-87
2023/04/10 08:09:11;;;;;;;3.47;3.13;;;11.70;99.90;;;;;;5014177;28;20115;-89
2023/04/10 08:11:37;;;;;;;2.50;2.30;;;11.70;99.90;;;;;;4995927;28;20048;-87
2023/04/10 08:14:04;;;;;;;3.35;3.15;;;11.80;99.90;;;;;;5012600;28;20045;-87
2023/04/10 08:16:32;;;;;;;3.20;1.60;;;11.90;99.90;;;;;;5011651;28;20049;-87
2023/04/10 08:18:58;;;;;;;5.32;3.55;;;12.00;99.90;;;;;;5030627;28;20037;-90
2023/04/10 08:21:26;;;;;;;3.28;2.90;;;12.00;99.90;;;;;;5017735;28;20060;-89
2023/04/10 08:23:56;;;;;;;3.38;3.17;;;12.10;99.90;;;;;;4995033;28;20053;-88
2023/04/10 08:26:23;;;;;;;1.83;1.58;;;12.00;99.90;;;;;;5009940;28;20132;-86
2023/04/10 08:28:51;;;;;;;1.15;1.10;;;12.10;99.90;;;;;;5015849;28;20502;-85
2023/04/10 08:31:17;;;;;;;6.07;3.47;;;12.00;99.90;;;;;;4993874;28;20114;-86
2023/04/10 08:33:43;;;;;;;2.63;1.92;;;12.10;99.90;;;;;;4980143;28;20057;-86
2023/04/10 08:36:09;;;;;;;2.00;1.90;;;12.30;99.90;;;;;;4977927;28;20049;-85
2023/04/10 08:38:35;;;;;;;;;;;12.30;99.90;;;;;;5025192;28;20029;-88
2023/04/10 08:41:01;;;;;;;1.40;1.23;;;12.40;99.90;;;;;;5013361;28;19929;-88
2023/04/10 08:43:27;;;;;;;2.78;2.63;;;12.50;99.90;;;;;;5013522;28;20052;-88
2023/04/10 08:45:52;;;;;;;3.55;1.85;;;12.70;99.90;;;;;;5009913;28;20041;-87
2023/04/10 08:48:20;;;;;;;3.17;2.90;;;12.80;99.90;;;;;;5010628;28;20056;-89
2023/04/10 08:50:46;;;;;;;1.98;1.10;;;13.00;99.90;;;;;;5018518;28;20072;-87
2023/04/10 08:53:15;;;;;;;2.38;2.17;;;13.20;99.90;;;;;;5024197;28;20056;-88
2023/04/10 08:55:42;;;;;;;2.35;2.08;;;13.30;99.90;;;;;;5019619;28;20050;-87
2023/04/10 08:58:10;;;;;;;2.22;2.13;;;12.60;99.90;;;;;;5028585;28;20081;-88
2023/04/10 09:00:37;;;;;;;1.23;1.17;;;13.20;99.90;;;;;;5019720;28;20131;-89
2023/04/10 09:03:10;;;;;;;1.38;1.27;;;13.20;99.90;;;;;;5018481;28;20076;-87
2023/04/10 09:05:36;;;;;;;2.95;2.08;;;13.30;99.90;;;;;;5026874;28;20034;-90
2023/04/10 09:08:03;;;;;;;;;;;13.40;99.90;;;;;;5013804;28;20128;-88
2023/04/10 09:10:28;;;;;;;1.48;1.38;;;13.60;99.90;;;;;;5015169;28;19928;-87
2023/04/10 09:12:54;;;;;;;1.60;1.50;;;13.70;99.90;;;;;;4985031;28;20033;-89
2023/04/10 09:15:20;;;;;;;1.50;1.40;;;13.80;99.90;;;;;;5015885;28;20061;-87
2023/04/10 09:18:00;;;;;;;1.55;1.15;;;13.90;99.90;;;;;;5011604;28;20413;-85
2023/04/10 09:20:31;;;;;;;3.03;2.25;;;14.00;99.90;;;;;;5012142;28;20038;-88
2023/04/10 09:22:57;;;;;;;2.25;2.15;;;14.10;99.90;;;;;;5033100;28;20403;-87
2023/04/10 09:25:33;;;;;;;;;;;14.20;99.90;;;;;;5031456;28;20476;-86
2023/04/10 09:28:08;;;;;;;2.10;1.90;;;14.30;99.90;;;;;;5027924;28;19947;-87
2023/04/10 09:30:41;;;;;;;2.60;2.28;;;14.40;99.20;;;;;;5012188;28;20498;-86
2023/04/10 09:33:26;;;;;;;2.88;2.70;;;14.40;98.20;;;;;;5020945;28;20041;-89
2023/04/10 09:35:53;;;;;;;2.10;1.90;;;14.40;99.30;;;;;;5031185;28;20056;-84
2023/04/10 09:38:20;;;;;;;0.82;0.82;;;14.40;97.10;;;;;;5002335;28;20103;-89
2023/04/10 09:40:47;;;;;;;2.28;1.60;;;14.30;97.90;;;;;;5026406;28;20037;-86
2023/04/10 09:43:24;;;;;;;3.13;1.27;;;14.50;96.50;;;;;;5014140;28;20041;-85
2023/04/10 09:45:56;;;;;;;3.35;1.35;;;14.50;98.60;;;;;;5017177;28;20045;-88
2023/04/10 09:48:23;;;;;;;1.05;0.95;;;14.70;98.10;;;;;;5024622;28;20190;-90
2023/04/10 09:50:48;;;;;;;2.88;2.67;;;14.80;96.10;;;;;;5014426;28;20505;-88
2023/04/10 09:53:18;;;;;;;1.52;1.42;;;14.90;97.00;;;;;;5017710;28;20037;-88
2023/04/10 09:55:45;;;;;;;1.42;1.35;;;15.10;96.00;;;;;;5058716;28;20134;-86
2023/04/10 09:58:12;;;;;;;3.63;1.60;;;15.20;95.70;;;;;;5017109;28;20171;-87
2023/04/10 10:00:43;;;;;;;0.57;0.57;;;15.30;95.80;;;;;;4999670;28;20049;-87
2023/04/10 10:03:17;;;;;;;0.75;0.75;;;15.40;95.40;;;;;;5011690;28;20045;-86
2023/04/10 10:05:45;;;;;;;1.42;1.33;;;15.50;94.00;;;;;;5022620;28;20041;-86
2023/04/10 10:08:13;;;;;;;1.65;1.48;;;15.70;95.50;;;;;;5014683;28;20045;-86
2023/04/10 10:10:52;;;;;;;3.65;2.10;;;15.80;96.00;;;;;;5028014;28;20105;-86
2023/04/10 10:13:32;;;;;;;3.08;2.53;;;15.80;93.10;;;;;;5001198;28;20052;-88
2023/04/10 10:16:04;;;;;;;0.70;0.70;;;15.80;92.50;;;;;;5022138;28;20056;-90
2023/04/10 10:18:36;;;;;;;2.60;2.35;;;15.90;94.80;;;;;;5018891;28;20151;-86
2023/04/10 10:21:03;;;;;;;2.35;2.08;;;16.00;92.80;;;;;;5014129;28;20444;-86
2023/04/10 10:23:32;;;;;;;1.27;1.17;;;16.10;91.60;;;;;;5012619;28;20048;-88
2023/04/10 10:25:59;;;;;;;2.45;1.20;;;16.20;91.70;;;;;;5019223;28;20090;-89
2023/04/10 10:28:30;;;;;;;1.65;1.35;;;16.20;92.10;;;;;;5013286;28;20033;-88
2023/04/10 10:30:56;;;;;;;2.70;2.47;;;16.20;92.50;;;;;;5019029;28;20052;-87
2023/04/10 10:33:25;;;;;;;4.00;3.22;;;16.20;90.80;;;;;;4993591;28;20045;-86
2023/04/10 10:35:51;;;;;;;1.65;1.52;;;16.10;90.50;;;;;;5016013;28;20036;-87
2023/04/10 10:38:18;;;;;;;1.45;1.27;;;16.00;91.70;;;;;;5014387;28;20117;-86
2023/04/10 10:40:56;;;;;;;7.50;2.25;;;16.10;90.70;;;;;;5016553;28;20083;-87
2023/04/10 10:43:36;;;;;;;0.85;0.85;;;16.20;91.50;;;;;;5021058;28;20415;-85
2023/04/10 10:46:06;;;;;;;1.45;1.35;;;16.10;90.70;;;;;;5000532;28;20037;-88
2023/04/10 10:48:32;;;;;;;0.50;0.47;;;16.00;90.60;;;;;;5017726;28;20033;-89
2023/04/10 10:51:00;;;;;;;1.15;1.05;;;15.90;90.50;;;;;;5025795;28;20037;-86
2023/04/10 10:53:42;;;;;;;1.15;1.13;;;16.00;91.00;;;;;;5021970;28;20513;-85
2023/04/10 10:56:22;;;;;;;0.60;0.60;;;16.00;90.80;;;;;;5031265;28;20033;-85
2023/04/10 10:58:50;;;;;;;0.60;0.60;;;16.10;90.00;;;;;;5037533;28;20049;-88
2023/04/10 11:01:20;;;;;;;1.27;1.17;;;16.00;89.00;;;;;;5027499;28;20108;-87
2023/04/10 11:03:46;;;;;;;1.33;1.15;;;16.10;90.30;;;;;;5000633;28;20049;-88
2023/04/10 11:06:20;;;;;;;1.48;1.35;;;16.00;86.90;;;;;;5020087;28;20042;-87
2023/04/10 11:08:51;;;;;;;0.85;0.85;;;16.00;89.20;;;;;;5014801;28;20107;-87
2023/04/10 11:11:26;;;;;;;2.50;1.23;;;16.00;88.40;;;;;;5012682;28;20041;-86
2023/04/10 11:13:51;;;;;;;2.10;1.38;;;16.00;90.10;;;;;;5027475;28;20042;-88
2023/04/10 11:16:31;;;;;;;0.95;0.88;;;16.10;88.10;;;;;;5012651;28;20048;-87
2023/04/10 11:19:02;;;;;;;1.27;0.73;;;16.20;87.80;;;;;;5010691;28;20041;-87
2023/04/10 11:21:29;;;;;;;1.42;1.33;;;16.20;88.60;;;;;;5014266;28;20064;-90
2023/04/10 11:23:54;;;;;;;1.75;1.65;;;16.30;88.50;;;;;;5014036;28;20045;-90
2023/04/10 11:26:38;;;;;;;0.50;0.50;;;16.30;85.90;;;;;;5014354;28;20037;-88
2023/04/10 11:29:05;;;;;;;1.67;1.20;;;16.50;88.50;;;;;;5013229;28;20052;-91
2023/04/10 11:31:32;;;;;;;1.27;1.10;;;16.50;87.50;;;;;;5013886;28;20049;-86
2023/04/10 11:34:07;;;;;;;1.33;0.77;;;16.40;86.20;;;;;;5031540;28;20395;-87
2023/04/10 11:36:41;;;;;;;0.85;0.85;;;16.50;88.20;;;;;;5014228;28;20045;-87
2023/04/10 11:39:12;;;;;;;2.45;1.40;;;16.40;86.30;;;;;;4998891;28;20587;-87
2023/04/10 11:41:40;;;;;;;1.42;1.33;;;16.40;86.10;;;;;;5014443;28;20088;-85
2023/04/10 11:44:12;;;;;;;1.25;1.15;;;16.50;87.20;;;;;;5020188;28;20041;-86
2023/04/10 11:46:43;;;;;;;1.92;1.80;;;16.40;87.30;;;;;;5013811;28;20564;-90
2023/04/10 11:49:10;;;;;;;1.05;0.80;;;16.40;86.20;;;;;;4996107;28;20060;-87
2023/04/10 11:51:39;;;;;;;0.70;0.70;;;16.40;86.00;;;;;;5013905;28;20120;-87
2023/04/10 11:54:20;;;;;;;1.80;1.70;;;16.40;85.40;;;;;;5012763;28;20045;-88
2023/04/10 11:56:58;;;;;;;0.45;0.45;;;16.60;85.60;;;;;;5012376;28;20053;-89
2023/04/10 11:59:25;;;;;;;1.20;1.08;;;16.60;87.30;;;;;;4997278;28;20399;-87
2023/04/10 12:01:54;;;;;;;0.57;0.40;;;16.70;83.80;;;;;;5007846;28;20053;-86
2023/04/10 12:04:22;;;;;;;0.98;0.98;;;16.70;85.30;;;;;;5011202;28;20052;-88
2023/04/10 12:06:50;;;;;;;0.88;0.68;;;16.80;83.60;;;;;;5031354;28;20068;-88
2023/04/10 12:09:17;;;;;;;1.42;1.10;;;16.90;85.50;;;;;;5033446;28;20033;-87
2023/04/10 12:11:51;;;;;;;0.50;0.50;;;17.00;84.60;;;;;;5028423;28;20049;-86
2023/04/10 12:14:18;;;;;;;0.30;0.30;;;17.20;83.80;;;;;;5009830;28;20037;-87
2023/04/10 12:16:45;;;;;;;0.50;0.50;;;17.20;82.40;;;;;;5021059;28;20042;-87
2023/04/10 12:19:11;;;;;;;0.63;0.63;;;17.20;83.00;;;;;;5007696;28;20565;-88
2023/04/10 12:21:40;;;;;;;0.57;0.57;;;17.10;80.70;;;;;;5014783;28;20061;-88
2023/04/10 12:24:05;;;;;;;0.50;0.50;;;17.20;83.40;;;;;;5016756;28;20131;-86
2023/04/10 12:26:31;;;;;;;;;;;17.30;82.30;;;;;;5021575;28;20121;-85
2023/04/10 12:28:57;;;;;;;0.38;0.38;;;17.40;81.70;;;;;;5019045;28;19921;-86
2023/04/10 12:31:34;;;;;;;3.13;0.85;;;17.60;81.00;;;;;;5022730;28;20025;-84
2023/04/10 12:34:00;;;;;;;;;;;18.00;81.70;;;;;;5034448;28;20044;-84
2023/04/10 12:36:29;;;;;;;1.23;0.82;;;18.30;79.80;;;;;;5041763;28;19925;-85
2023/04/10 12:38:59;;;;;;;0.52;0.52;;;18.40;79.50;;;;;;5028764;28;20040;-87
2023/04/10 12:41:28;;;;;;;0.50;0.50;;;18.10;78.40;;;;;;5029380;28;20042;-85
2023/04/10 12:44:12;;;;;;;0.55;0.55;;;18.00;78.90;;;;;;5033962;28;20044;-87
2023/04/10 12:46:38;;;;;;;0.73;0.73;;;17.80;78.10;;;;;;5029897;28;20053;-87
2023/04/10 12:49:22;;;;;;;0.63;0.63;;;17.60;78.90;;;;;;5021931;28;20528;-87
2023/04/10 12:51:50;;;;;;;0.63;0.63;;;17.50;78.80;;;;;;5019809;28;20386;-87
2023/04/10 12:54:30;;;;;;;0.20;0.20;;;17.30;79.30;;;;;;5014831;28;20045;-85
2023/04/10 12:56:56;;;;;;;0.98;0.88;;;17.10;78.50;;;;;;5003808;28;20056;-90
2023/04/10 12:59:23;;;;;;;2.15;1.30;;;16.90;79.10;;;;;;5020804;28;20045;-89